Latest Weather Observations for Delta

IDN60801

Issued at 2:12 am EST Friday 22 June 2018 (issued every 10 minutes, with the page automatically refreshed every 10 minutes)

About weather observations | Map of weather stations | Latest weather observations for NSW | Other Formats
Station Details ID: 048247 Name: DELTA AWS Lat: -30.10 Lon: 145.33 Height: 109.0 m
Data from the previous 72 hours. | See also: Recent months at Delta
Date/Time
EST
Temp
°C
App
Temp
°C
Dew
Point
°C
Rel
Hum
%
Delta-T
°C
Wind Press
QNH
hPa
Press
MSL
hPa
Rain since
9am
mm
Dir  Spd
km/h
Gust
km/h
Spd
kts
Gust
kts
22/02:00am 2.1 - -4.6 61 2.3 - - - - - - - 0.0
22/01:30am 2.3 - -4.6 60 2.3 - - - - - - - 0.0
22/01:00am 3.0 - -4.4 58 2.5 - - - - - - - 0.0
22/12:30am 3.4 - -3.8 59 2.4 - - - - - - - 0.0
22/12:00am 4.1 - -3.2 59 2.5 - - - - - - - 0.0
 
Date/Time
EST
Temp
°C
App
Temp
°C
Dew
Point
°C
Rel
Hum
%
Delta-T
°C
Wind Press
QNH
hPa
Press
MSL
hPa
Rain since
9am
mm
Dir  Spd
km/h
Gust
km/h
Spd
kts
Gust
kts
21/11:30pm 4.6 - -3.2 57 2.7 - - - - - - - 0.0
21/11:00pm 5.1 - -3.4 54 3.0 - - - - - - - 0.0
21/10:30pm 6.1 - -2.7 53 3.2 - - - - - - - 0.0
21/10:00pm 5.8 - -2.8 54 3.1 - - - - - - - 0.0
21/09:30pm 6.2 - -2.2 55 3.1 - - - - - - - 0.0
21/09:00pm 6.9 - -2.5 51 3.5 - - - - - - - 0.0
21/08:30pm 7.5 - -2.0 51 3.6 - - - - - - - 0.0
21/08:00pm 8.5 - -1.9 48 4.0 - - - - - - - 0.0
21/07:30pm 9.8 - -1.3 46 4.3 - - - - - - - 0.0
21/07:00pm 11.5 - -0.9 42 5.0 - - - - - - - 0.0
21/06:30pm 13.2 - 0.6 42 5.3 - - - - - - - 0.0
21/06:00pm 15.4 - 0.4 36 6.4 - - - - - - - 0.0
21/05:30pm 17.4 - 0.6 32 7.4 - - - - - - - 0.0
21/05:00pm 18.9 - 0.5 29 8.2 - - - - - - - 0.0
21/04:30pm 19.5 - 0.5 28 8.5 - - - - - - - 0.0
21/04:00pm 19.6 - 1.1 29 8.4 - - - - - - - 0.0
21/03:30pm 19.8 - 0.3 27 8.7 - - - - - - - 0.0
21/03:00pm 19.6 - 1.6 30 8.2 - - - - - - - 0.0
21/02:30pm 19.5 - 2.4 32 7.9 - - - - - - - 0.0
21/02:00pm 19.4 - 3.6 35 7.5 - - - - - - - 0.0
21/01:30pm 19.5 - 3.6 35 7.6 - - - - - - - 0.0
21/01:00pm 19.0 - 4.0 37 7.2 - - - - - - - 0.0
21/12:30pm 18.2 - 4.4 40 6.6 - - - - - - - 0.0
21/12:00pm 17.7 - 4.6 42 6.3 - - - - - - - 0.0
21/11:30am 16.9 - 4.9 45 5.7 - - - - - - - 0.0
21/11:00am 15.6 - 4.6 48 5.2 - - - - - - - 0.0
21/10:30am 14.6 - 4.6 51 4.7 - - - - - - - 0.0
21/10:00am 13.3 - 4.2 54 4.2 - - - - - - - 0.0
21/09:30am 11.8 - 3.8 58 3.6 - - - - - - - 0.0
21/09:00am 10.7 - 4.0 63 3.0 - - - - - - - 0.0
21/08:30am 8.4 - 3.8 73 2.0 - - - - - - - 0.0
21/08:26am 7.5 - 3.4 75 1.8 - - - - - - - 0.0
21/08:00am 2.4 - -1.4 76 1.4 - - - - - - - 0.0
21/07:30am 1.2 - -2.9 74 1.5 - - - - - - - 0.0
21/07:00am 1.5 - -3.0 72 1.6 - - - - - - - 0.0
21/06:30am 2.5 - -1.5 75 1.4 - - - - - - - 0.0
21/06:00am 1.9 - -1.9 76 1.3 - - - - - - - 0.0
21/05:30am 2.1 - -1.9 75 1.4 - - - - - - - 0.0
21/05:00am 2.3 - -2.4 71 1.6 - - - - - - - 0.0
21/04:30am 2.4 - -2.1 72 1.6 - - - - - - - 0.0
21/04:00am 2.6 - -2.3 70 1.7 - - - - - - - 0.0
21/03:30am 2.7 - -2.0 71 1.7 - - - - - - - 0.0
21/03:00am 2.9 - -1.6 72 1.6 - - - - - - - 0.0
21/02:30am 3.1 - -0.9 75 1.5 - - - - - - - 0.0
21/02:00am 3.8 - -0.2 75 1.5 - - - - - - - 0.0
21/01:30am 4.4 - -0.4 71 1.8 - - - - - - - 0.0
21/01:00am 5.2 - 0.2 70 1.9 - - - - - - - 0.0
21/12:30am 5.8 - -0.3 65 2.3 - - - - - - - 0.0
21/12:00am 6.8 - 0.9 66 2.4 - - - - - - - 0.0
 
Date/Time
EST
Temp
°C
App
Temp
°C
Dew
Point
°C
Rel
Hum
%
Delta-T
°C
Wind Press
QNH
hPa
Press
MSL
hPa
Rain since
9am
mm
Dir  Spd
km/h
Gust
km/h
Spd
kts
Gust
kts
20/11:30pm 7.2 - 1.3 66 2.4 - - - - - - - 0.0
20/11:00pm 7.3 - 1.4 66 2.4 - - - - - - - 0.0
20/10:30pm 6.9 - 0.6 64 2.5 - - - - - - - 0.0
20/10:00pm 7.5 - 1.1 64 2.6 - - - - - - - 0.0
20/09:30pm 8.4 - 1.1 60 3.0 - - - - - - - 0.0
20/09:00pm 8.9 - 1.6 60 3.0 - - - - - - - 0.0
20/08:30pm 9.4 - 1.6 58 3.3 - - - - - - - 0.0
20/08:00pm 9.2 - 1.9 60 3.1 - - - - - - - 0.0
20/07:30pm 9.2 - 1.6 59 3.2 - - - - - - - 0.0
20/07:00pm 9.8 - 1.7 57 3.4 - - - - - - - 0.0
20/06:30pm 10.7 - 2.0 55 3.7 - - - - - - - 0.0
20/06:00pm 12.1 - 2.8 53 4.1 - - - - - - - 0.0
20/05:30pm 12.5 - 2.9 52 4.2 - - - - - - - 0.0
20/05:00pm 13.7 - 2.9 48 4.8 - - - - - - - 0.0
20/04:30pm 14.7 - 3.2 46 5.2 - - - - - - - 0.0
20/04:00pm 14.8 - 3.3 46 5.2 - - - - - - - 0.0
20/03:30pm 14.8 - 3.3 46 5.2 - - - - - - - 0.0
20/03:00pm 14.5 - 3.0 46 5.2 - - - - - - - 0.0
20/02:30pm 14.4 - 3.2 47 5.1 - - - - - - - 0.0
20/02:00pm 14.2 - 3.1 47 5.0 - - - - - - - 0.0
20/01:30pm 14.0 - 3.2 48 4.9 - - - - - - - 0.0
20/01:00pm 13.6 - 3.1 49 4.7 - - - - - - - 0.0
20/12:30pm 13.1 - 2.9 50 4.5 - - - - - - - 0.0
20/12:00pm 12.5 - 2.9 52 4.2 - - - - - - - 0.0
20/11:30am 11.9 - 2.6 53 4.1 - - - - - - - 0.0
20/11:00am 11.5 - 2.5 54 3.9 - - - - - - - 0.0
20/10:30am 11.0 - 2.3 55 3.7 - - - - - - - 0.0
20/10:00am 10.5 - 2.1 56 3.6 - - - - - - - 0.0
20/09:30am 10.2 - 1.8 56 3.5 - - - - - - - 0.0
20/09:00am 9.7 - 1.8 58 3.3 - - - - - - - 0.0
20/08:30am 8.8 - 1.5 60 3.0 - - - - - - - 0.0
20/08:00am 8.3 - 1.0 60 3.0 - - - - - - - 0.0
20/07:30am 8.1 - 1.0 61 2.9 - - - - - - - 0.0
20/07:00am 8.1 - 0.6 59 3.0 - - - - - - - 0.0
20/06:30am 8.6 - 0.6 57 3.2 - - - - - - - 0.0
20/06:00am 9.2 - 1.4 58 3.2 - - - - - - - 0.0
20/05:30am 8.3 - 0.3 57 3.2 - - - - - - - 0.0
20/05:00am 8.8 - 0.5 56 3.4 - - - - - - - 0.0
20/04:30am 9.4 - 0.6 54 3.6 - - - - - - - 0.0
20/04:00am 9.4 - 0.8 55 3.5 - - - - - - - 0.0
20/03:30am 8.7 - 0.2 55 3.4 - - - - - - - 0.0
20/03:00am 9.2 - 0.4 54 3.6 - - - - - - - 0.0
20/02:30am 8.9 - 0.1 54 3.5 - - - - - - - 0.0
20/02:00am 9.1 - 0.0 53 3.6 - - - - - - - 0.0
20/01:30am 8.7 - -0.3 53 3.6 - - - - - - - 0.0
20/01:00am 9.5 - -0.4 50 3.9 - - - - - - - 0.0
20/12:30am 10.5 - 0.0 48 4.3 - - - - - - - 0.0
20/12:00am 11.2 - 0.0 46 4.6 - - - - - - - 0.0
 
Date/Time
EST
Temp
°C
App
Temp
°C
Dew
Point
°C
Rel
Hum
%
Delta-T
°C
Wind Press
QNH
hPa
Press
MSL
hPa
Rain since
9am
mm
Dir  Spd
km/h
Gust
km/h
Spd
kts
Gust
kts
19/11:30pm 11.6 - 0.4 46 4.6 - - - - - - - 0.0
19/11:00pm 11.4 - 0.8 48 4.4 - - - - - - - 0.0
19/10:30pm 8.7 - -0.6 52 3.7 - - - - - - - 0.0
19/10:00pm 9.0 - -0.1 53 3.6 - - - - - - - 0.0
19/09:30pm 8.3 - -1.0 52 3.6 - - - - - - - 0.0
19/09:00pm 9.8 - 0.7 53 3.7 - - - - - - - 0.0
19/08:30pm 8.3 - -1.0 52 3.6 - - - - - - - 0.0
19/08:00pm 9.4 - 0.1 52 3.7 - - - - - - - 0.0
19/07:30pm 9.4 - 0.6 54 3.6 - - - - - - - 0.0
19/07:00pm 8.7 - -0.9 51 3.7 - - - - - - - 0.0
19/06:30pm 10.5 - -0.3 47 4.4 - - - - - - - 0.0
19/06:00pm 10.7 - -0.7 45 4.6 - - - - - - - 0.0
19/05:30pm 13.3 - 0.3 41 5.5 - - - - - - - 0.0
19/05:00pm 14.9 - 0.4 37 6.2 - - - - - - - 0.0
19/04:30pm 15.6 - 0.2 35 6.6 - - - - - - - 0.0
19/04:00pm 15.5 - 0.5 36 6.5 - - - - - - - 0.0
19/03:30pm 15.1 - 0.2 36 6.4 - - - - - - - 0.0
19/03:00pm 14.9 - 0.4 37 6.2 - - - - - - - 0.0
19/02:30pm 15.4 - 0.4 36 6.4 - - - - - - - 0.0
19/02:00pm 14.9 - 0.4 37 6.2 - - - - - - - 0.0
19/01:30pm 13.8 - 1.5 43 5.3 - - - - - - - 0.0
19/01:00pm 13.6 - 1.3 43 5.3 - - - - - - - 0.0
19/12:30pm 12.9 - 1.9 47 4.8 - - - - - - - 0.0
19/12:00pm 12.3 - 2.2 50 4.4 - - - - - - - 0.0
19/11:30am 12.3 - 2.7 52 4.2 - - - - - - - 0.0
19/11:00am 11.5 - 2.8 55 3.8 - - - - - - - 0.0
19/10:30am 10.8 - 2.9 58 3.4 - - - - - - - 0.0
19/10:00am 10.3 - 3.1 61 3.1 - - - - - - - 0.0
19/09:30am 9.4 - 2.9 64 2.8 - - - - - - - 0.0
19/09:00am 8.2 - 2.9 69 2.3 - - - - - - - 0.0
19/08:30am 7.0 - 2.5 73 1.9 - - - - - - - 0.0
19/08:00am 5.8 - 2.1 77 1.5 - - - - - - - 0.0
19/07:30am 4.8 - 1.7 80 1.2 - - - - - - - 0.0
19/07:00am 4.7 - 2.4 85 0.9 - - - - - - - 0.0
19/06:59am 4.7 - 2.6 86 0.9 - - - - - - - 0.0
19/06:30am -0.3 - -1.6 91 0.4 - - - - - - - 0.0
19/06:00am -0.7 - -2.6 87 0.6 - - - - - - - 0.0
19/05:30am 0.4 - -1.0 90 0.5 - - - - - - - 0.0
19/05:00am 1.1 - -0.4 90 0.5 - - - - - - - 0.0
19/04:30am 1.3 - -0.6 87 0.7 - - - - - - - 0.0
19/04:00am 2.0 - 0.1 87 0.7 - - - - - - - 0.0
19/03:30am 2.5 - 0.1 84 0.9 - - - - - - - 0.0
19/03:00am 5.0 - 1.3 77 1.5 - - - - - - - 0.0
19/02:30am 5.5 - 1.4 75 1.6 - - - - - - - 0.0

Other Formats:

Comma delimited format used in spreadsheet applications
http://www.bom.gov.au/fwo/IDN60801/IDN60801.95681.axf

JavaScript Object Notation format (JSON) in row-major order
http://www.bom.gov.au/fwo/IDN60801/IDN60801.95681.json